Time;durP1;ratioP1;P1;durP2;ratioP2;P2;SDS_P1;SDS_P2;PMS_P1;PMS_P2;Temp;Humidity;BMP_temperature;BMP_pressure;BME280_temperature;BME280_humidity;BME280_pressure;Samples;Min_cycle;Max_cycle;Signal;HPM_P1;HPM_P2
2024/04/23 00:01:37;;;;;;;;;;;;;;;22.83;46.90;93945.47;5278249;27;9651;-63
2024/04/23 00:04:03;;;;;;;;;;;;;;;22.87;46.42;93947.97;5283802;27;9020;-63
2024/04/23 00:06:29;;;;;;;;;;;;;;;22.87;46.97;93947.97;5268989;27;9640;-62
2024/04/23 00:09:04;;;;;;;;;;;;;;;22.86;47.23;93943.75;5299062;26;9140;-62
2024/04/23 00:11:51;;;;;;;;;;;;;;;22.85;46.66;93937.50;5312784;26;9481;-63
2024/04/23 00:14:28;;;;;;;;;;;;;;;22.83;46.45;93933.75;5312381;26;9351;-62
2024/04/23 00:17:04;;;;;;;;;;;;;;;22.79;46.59;93931.28;5425837;26;9454;-62
2024/04/23 00:19:34;;;;;;;;;;;;;;;22.83;46.94;93936.50;5425430;26;7622;-62
2024/04/23 00:22:02;;;;;;;;;;;;;;;22.79;46.83;93922.31;5430129;26;7004;-62
2024/04/23 00:24:33;;;;;;;;;;;;;;;22.80;46.71;93924.53;5418757;26;7725;-62
2024/04/23 00:27:03;;;;;;;;;;;;;;;22.79;46.93;93930.53;5418455;26;8973;-63
2024/04/23 00:29:46;;;;;;;;;;;;;;;22.81;46.72;93919.81;5418399;26;9538;-63
2024/04/23 00:32:24;;;;;;;;;;;;;;;22.81;47.10;93922.56;5417930;26;7132;-63
2024/04/23 00:35:01;;;;;;;;;;;;;;;22.79;47.06;93917.59;5412232;26;8939;-62
2024/04/23 00:37:36;;;;;;;;;;;;;;;22.77;46.79;93909.09;5438703;26;9449;-63
2024/04/23 00:40:04;;;;;;;;;;;;;;;22.80;46.16;93912.81;5417312;26;8665;-63
2024/04/23 00:42:36;;;;;;;;;;;;;;;22.81;47.08;93908.84;5416280;26;9408;-63
2024/04/23 00:45:16;;;;;;;;;;;;;;;22.82;46.77;93915.81;5417241;26;9427;-62
2024/04/23 00:47:51;;;;;;;;;;;;;;;22.79;46.76;93903.13;5418295;26;9000;-64
2024/04/23 00:50:48;;;;;;;;;;;;;;;22.80;46.47;93896.38;5419556;26;8537;-62
2024/04/23 00:53:15;;;;;;;;;;;;;;;22.77;46.88;93891.91;5381446;26;9092;-62
2024/04/23 00:55:52;;;;;;;;;;;;;;;22.79;46.77;93890.16;5372898;26;9121;-62
2024/04/23 00:58:23;;;;;;;;;;;;;;;22.81;46.07;93887.66;5381573;26;9029;-62
2024/04/23 01:00:52;;;;;;;;;;;;;;;22.80;47.08;93880.69;5410674;26;7360;-62
2024/04/23 01:03:19;;;;;;;;;;;;;;;22.83;46.47;93887.91;5439184;26;8626;-63
2024/04/23 01:05:45;;;;;;;;;;;;;;;22.81;46.53;93884.94;5409810;26;9056;-63
2024/04/23 01:08:21;;;;;;;;;;;;;;;22.80;47.08;93886.16;5383242;26;7251;-63
2024/04/23 01:10:59;;;;;;;;;;;;;;;22.83;46.47;93882.41;5408785;26;9389;-63
2024/04/23 01:13:27;;;;;;;;;;;;;;;22.83;46.06;93878.94;5380965;26;9059;-63
2024/04/23 01:15:57;;;;;;;;;;;;;;;22.83;46.68;93884.41;5374494;26;9516;-62
2024/04/23 01:18:33;;;;;;;;;;;;;;;22.83;46.45;93884.41;5415693;26;9535;-62
2024/04/23 01:21:03;;;;;;;;;;;;;;;22.83;46.27;93881.66;5381933;26;9121;-62
2024/04/23 01:24:06;;;;;;;;;;;;;;;22.81;46.42;93875.94;5380421;26;9032;-62
2024/04/23 01:27:00;;;;;;;;;;;;;;;22.81;46.28;93876.69;5390570;26;9158;-62
2024/04/23 01:29:41;;;;;;;;;;;;;;;22.79;46.33;93879.19;5368733;26;9580;-62
2024/04/23 01:32:26;;;;;;;;;;;;;;;22.81;46.44;93879.44;5382165;26;7128;-63
2024/04/23 01:34:55;;;;;;;;;;;;;;;22.70;46.11;93863.03;5403988;26;9471;-64
2024/04/23 01:37:35;;;;;;;;;;;;;;;22.82;46.21;93875.44;5467373;26;9011;-64
2024/04/23 01:40:29;;;;;;;;;;;;;;;22.82;46.04;93872.69;5441697;26;7095;-64
2024/04/23 01:42:57;;;;;;;;;;;;;;;22.73;46.26;93864.75;5333477;26;9183;-64
2024/04/23 01:45:34;;;;;;;;;;;;;;;22.82;46.36;93867.22;5304752;26;9018;-64
2024/04/23 01:48:03;;;;;;;;;;;;;;;22.80;46.38;93869.72;5305361;27;9067;-64
2024/04/23 01:50:30;;;;;;;;;;;;;;;22.81;46.49;93871.22;5303878;27;8992;-64
2024/04/23 01:52:56;;;;;;;;;;;;;;;22.79;46.10;93868.22;5310350;26;9011;-64
2024/04/23 01:55:22;;;;;;;;;;;;;;;22.79;46.52;93868.22;5304452;27;9013;-64
2024/04/23 01:57:50;;;;;;;;;;;;;;;22.80;46.34;93864.22;5303736;27;9401;-64
2024/04/23 02:00:37;;;;;;;;;;;;;;;22.82;46.30;93864.47;5305074;27;9140;-64
2024/04/23 02:03:05;;;;;;;;;;;;;;;22.78;46.13;93855.00;5298978;27;9432;-64
2024/04/23 02:05:33;;;;;;;;;;;;;;;22.80;46.10;93861.47;5287067;27;9712;-64
2024/04/23 02:08:03;;;;;;;;;;;;;;;22.77;45.94;93854.25;5304122;27;9018;-63
2024/04/23 02:10:31;;;;;;;;;;;;;;;22.78;46.04;93852.28;5304815;27;9863;-64
2024/04/23 02:13:09;;;;;;;;;;;;;;;22.79;46.14;93851.78;5302386;26;9480;-63
2024/04/23 02:15:45;;;;;;;;;;;;;;;22.80;46.41;93855.25;5304626;27;9434;-64
2024/04/23 02:18:25;;;;;;;;;;;;;;;22.78;46.63;93849.53;5276051;27;9160;-64
2024/04/23 02:21:00;;;;;;;;;;;;;;;22.75;46.54;93847.81;5406843;26;8997;-63
2024/04/23 02:23:38;;;;;;;;;;;;;;;22.77;45.89;93851.53;5427645;26;9887;-64
2024/04/23 02:26:05;;;;;;;;;;;;;;;22.78;46.57;93850.28;5415386;26;9725;-63
2024/04/23 02:28:37;;;;;;;;;;;;;;;22.77;46.66;93843.28;5416099;26;8765;-63
2024/04/23 02:31:19;;;;;;;;;;;;;;;22.77;46.07;93837.81;5416261;26;9452;-64
2024/04/23 02:33:52;;;;;;;;;;;;;;;22.76;46.22;93843.81;5406903;26;9809;-64
2024/04/23 02:36:33;;;;;;;;;;;;;;;22.77;46.02;93843.28;5425211;26;9004;-63
2024/04/23 02:39:03;;;;;;;;;;;;;;;22.79;46.55;93846.31;5416648;26;9419;-64
2024/04/23 02:41:36;;;;;;;;;;;;;;;22.80;45.98;93841.53;5471028;26;9930;-64
2024/04/23 02:44:11;;;;;;;;;;;;;;;22.79;46.21;93838.06;5415428;26;9124;-63
2024/04/23 02:46:44;;;;;;;;;;;;;;;22.76;46.16;93833.59;5432341;26;9467;-62
2024/04/23 02:49:10;;;;;;;;;;;;;;;22.76;46.35;93825.38;5442324;26;9577;-63
2024/04/23 02:51:55;;;;;;;;;;;;;;;22.67;46.33;93820.16;5408990;26;7219;-63
2024/04/23 02:54:22;;;;;;;;;;;;;;;22.78;45.98;93833.84;5410681;26;9072;-63
2024/04/23 02:56:50;;;;;;;;;;;;;;;22.77;46.47;93831.59;5414692;26;8990;-63
2024/04/23 02:59:20;;;;;;;;;;;;;;;22.73;46.08;93820.88;5445326;26;9050;-62
2024/04/23 03:01:59;;;;;;;;;;;;;;;22.80;45.95;93825.09;5414039;26;9777;-62
2024/04/23 03:04:25;;;;;;;;;;;;;;;22.78;46.13;93816.63;5444277;26;7396;-63
2024/04/23 03:06:51;;;;;;;;;;;;;;;22.80;45.67;93811.38;5411792;26;9508;-62
2024/04/23 03:09:30;;;;;;;;;;;;;;;22.80;45.91;93811.38;5439533;26;9102;-63
2024/04/23 03:11:57;;;;;;;;;;;;;;;22.78;45.88;93814.63;5383553;26;9591;-62
2024/04/23 03:14:25;;;;;;;;;;;;;;;22.79;45.51;93812.66;5426507;26;9101;-62
2024/04/23 03:16:54;;;;;;;;;;;;;;;22.75;45.92;93818.38;5424821;26;9447;-63
2024/04/23 03:19:20;;;;;;;;;;;;;;;22.77;45.96;93810.41;5417351;26;9007;-62
2024/04/23 03:21:54;;;;;;;;;;;;;;;22.80;45.75;93805.91;5448601;26;8995;-62
2024/04/23 03:24:27;;;;;;;;;;;;;;;22.81;45.77;93810.16;5418375;26;9038;-63
2024/04/23 03:26:53;;;;;;;;;;;;;;;22.79;45.52;93810.66;5429411;26;9111;-62
2024/04/23 03:29:19;;;;;;;;;;;;;;;22.77;45.69;93807.66;5416091;26;9066;-63
2024/04/23 03:31:57;;;;;;;;;;;;;;;22.78;46.00;93800.94;5446659;26;9568;-62
2024/04/23 03:34:24;;;;;;;;;;;;;;;22.74;45.62;93805.19;5414679;26;9633;-62
2024/04/23 03:36:50;;;;;;;;;;;;;;;22.73;45.91;93804.44;5438521;26;8883;-63
2024/04/23 03:39:19;;;;;;;;;;;;;;;22.79;45.87;93810.66;5435602;26;9329;-63
2024/04/23 03:41:59;;;;;;;;;;;;;;;22.77;45.98;93810.41;5430176;26;9065;-63
2024/04/23 03:44:30;;;;;;;;;;;;;;;22.79;45.48;93805.19;5437020;26;8992;-63
2024/04/23 03:46:56;;;;;;;;;;;;;;;22.79;45.50;93807.91;5442056;26;8953;-62
2024/04/23 03:49:23;;;;;;;;;;;;;;;22.77;46.15;93804.91;5447095;26;7275;-63
2024/04/23 03:51:54;;;;;;;;;;;;;;;22.77;46.47;93804.91;5445697;26;9014;-63
2024/04/23 03:54:22;;;;;;;;;;;;;;;22.78;46.23;93805.66;5414764;26;8687;-62
2024/04/23 03:56:50;;;;;;;;;;;;;;;22.77;46.03;93802.16;5416450;26;9477;-62
2024/04/23 03:59:16;;;;;;;;;;;;;;;22.80;46.13;93803.16;5410168;26;8270;-63
2024/04/23 04:01:42;;;;;;;;;;;;;;;22.81;45.70;93801.91;5424640;26;7124;-63
2024/04/23 04:06:53;;;;;;;;;;;;;;;22.77;45.64;93799.44;5438814;26;8682;-63
2024/04/23 04:09:20;;;;;;;;;;;;;;;22.78;45.92;93791.97;5429280;26;9530;-63
2024/04/23 04:11:56;;;;;;;;;;;;;;;22.79;45.74;93798.94;5415251;26;9528;-63
2024/04/23 04:14:28;;;;;;;;;;;;;;;22.75;45.57;93793.72;5409585;26;6967;-63
2024/04/23 04:17:26;;;;;;;;;;;;;;;22.78;46.25;93809.16;5406092;26;9370;-63
2024/04/23 04:20:13;;;;;;;;;;;;;;;22.76;45.37;93800.69;5416412;26;7382;-63
2024/04/23 04:22:40;;;;;;;;;;;;;;;22.76;45.71;93803.44;5447930;26;9424;-63
2024/04/23 04:25:08;;;;;;;;;;;;;;;22.77;45.54;93804.91;5418725;26;8985;-63
2024/04/23 04:27:35;;;;;;;;;;;;;;;22.73;45.63;93804.44;5417915;26;8980;-63
2024/04/23 04:30:09;;;;;;;;;;;;;;;22.74;45.98;93805.94;5417614;26;9059;-63
2024/04/23 04:32:44;;;;;;;;;;;;;;;22.77;46.11;93804.19;5446211;26;9364;-61
2024/04/23 04:35:19;;;;;;;;;;;;;;;22.78;46.12;93803.66;5414853;26;8630;-61
2024/04/23 04:37:48;;;;;;;;;;;;;;;22.83;46.38;93808.41;5416983;26;9012;-60
2024/04/23 04:40:14;;;;;;;;;;;;;;;22.88;47.51;93804.13;5414228;26;9098;-60
2024/04/23 04:42:40;;;;;;;;;;;;;;;22.96;47.56;93805.81;5464016;26;9130;-60
2024/04/23 04:45:06;;;;;;;;;;;;;;;23.01;47.49;93804.31;5409759;26;9191;-61
2024/04/23 04:48:12;;;;;;;;;;;;;;;23.04;47.97;93806.78;5416396;26;8916;-60
2024/04/23 04:50:49;;;;;;;;;;;;;;;23.05;48.01;93802.03;5413702;26;9136;-60
2024/04/23 04:53:20;;;;;;;;;;;;;;;23.04;47.66;93806.03;5433469;26;8658;-61
2024/04/23 04:55:54;;;;;;;;;;;;;;;22.97;45.79;93796.34;5417979;26;8993;-61
2024/04/23 04:59:13;;;;;;;;;;;;;;;22.96;45.92;93799.59;5432337;26;9064;-61
2024/04/23 05:02:08;;;;;;;;;;;;;;;22.90;45.70;93807.84;5277254;27;9142;-60
2024/04/23 05:04:34;;;;;;;;;;;;;;;22.88;45.93;93795.91;5159582;27;7098;-62
2024/04/23 05:07:00;;;;;;;;;;;;;;;22.89;46.05;93802.88;5216033;27;9557;-61
2024/04/23 05:09:27;;;;;;;;;;;;;;;22.89;46.19;93802.88;5204589;27;9061;-60
2024/04/23 05:12:06;;;;;;;;;;;;;;;22.86;45.10;93803.91;5203688;27;10089;-61
2024/04/23 05:14:36;;;;;;;;;;;;;;;22.85;45.87;93805.13;5154267;27;9458;-59
2024/04/23 05:17:04;;;;;;;;;;;;;;;22.86;45.92;93810.09;5204090;27;9395;-59
2024/04/23 05:20:00;;;;;;;;;;;;;;;22.86;45.54;93803.91;5204901;27;7311;-59
2024/04/23 05:22:27;;;;;;;;;;;;;;;22.82;45.73;93800.66;5106042;27;9543;-58
2024/04/23 05:24:54;;;;;;;;;;;;;;;22.79;44.16;93799.69;5138480;27;9028;-60
2024/04/23 05:27:39;;;;;;;;;;;;;;;22.77;44.57;93812.41;5125382;27;8809;-59
2024/04/23 05:33:35;;;;;;;;;;;;;;;22.75;44.98;93801.22;5138707;27;9027;-62
2024/04/23 05:36:22;;;;;;;;;;;;;;;22.98;48.98;93822.53;5075798;27;7089;-61
2024/04/23 05:38:49;;;;;;;;;;;;;;;23.22;50.21;93821.88;5112445;27;9119;-61
2024/04/23 05:41:20;;;;;;;;;;;;;;;23.45;51.85;93819.75;5214822;27;9497;-62
2024/04/23 05:44:01;;;;;;;;;;;;;;;23.65;52.36;93820.09;5233030;27;7200;-62
2024/04/23 05:46:40;;;;;;;;;;;;;;;23.84;53.75;93820.94;5234530;27;9024;-62
2024/04/23 05:49:44;;;;;;;;;;;;;;;24.04;54.65;93816.25;5252210;27;9513;-62
2024/04/23 05:53:09;;;;;;;;;;;;;;;24.20;52.81;93818.88;5255323;27;8579;-62
2024/04/23 05:56:03;;;;;;;;;;;;;;;24.29;49.00;93812.28;5252412;27;9907;-61
2024/04/23 05:58:29;;;;;;;;;;;;;;;24.29;47.83;93823.28;5247768;27;9432;-59
2024/04/23 06:01:05;;;;;;;;;;;;;;;24.21;45.45;93819.59;5296216;26;9366;-61
2024/04/23 06:03:34;;;;;;;;;;;;;;;24.23;44.02;93828.81;5280781;27;9021;-62
2024/04/23 06:06:00;;;;;;;;;;;;;;;24.21;44.40;93827.84;5334515;26;9534;-60
2024/04/23 06:08:29;;;;;;;;;;;;;;;24.17;44.24;93833.63;5310825;26;9503;-60
2024/04/23 06:10:55;;;;;;;;;;;;;;;24.02;43.92;93816.78;5319346;26;9087;-59
2024/04/23 06:13:23;;;;;;;;;;;;;;;23.59;43.97;93816.66;5429728;26;8183;-60
2024/04/23 06:16:09;;;;;;;;;;;;;;;23.30;45.47;93833.03;5437985;26;9112;-61
2024/04/23 06:18:43;;;;;;;;;;;;;;;23.17;46.02;93819.91;5416295;26;9035;-62
2024/04/23 06:21:16;;;;;;;;;;;;;;;23.06;46.35;93825.47;5444595;26;9766;-62
2024/04/23 06:23:45;;;;;;;;;;;;;;;23.03;46.55;93831.97;5402011;26;8631;-62
2024/04/23 06:26:22;;;;;;;;;;;;;;;23.00;46.56;93830.97;5415280;26;9345;-62
2024/04/23 06:28:50;;;;;;;;;;;;;;;22.92;47.03;93821.78;5431792;26;9539;-61
2024/04/23 06:31:23;;;;;;;;;;;;;;;22.92;47.13;93821.78;5416037;26;9073;-61
2024/04/23 06:33:51;;;;;;;;;;;;;;;22.92;47.27;93821.78;5467467;26;9577;-61
2024/04/23 06:36:53;;;;;;;;;;;;;;;22.95;46.74;93829.00;5485718;26;9758;-61
2024/04/23 06:39:21;;;;;;;;;;;;;;;22.93;46.54;93828.78;5402404;26;8957;-61
2024/04/23 06:41:48;;;;;;;;;;;;;;;22.84;46.16;93823.56;5397850;26;9446;-61
2024/04/23 06:44:29;;;;;;;;;;;;;;;22.85;46.48;93821.59;5475229;26;7326;-61
2024/04/23 06:47:20;;;;;;;;;;;;;;;22.84;46.40;93829.06;5423073;26;9621;-61
2024/04/23 06:49:51;;;;;;;;;;;;;;;22.75;45.74;93818.38;5415524;26;9550;-62
2024/04/23 06:52:19;;;;;;;;;;;;;;;22.72;45.92;93816.66;5422391;26;9007;-61
2024/04/23 06:54:47;;;;;;;;;;;;;;;22.75;46.33;93823.88;5408206;26;9045;-60
2024/04/23 06:57:46;;;;;;;;;;;;;;;22.75;46.02;93825.88;5415702;26;9475;-61
2024/04/23 07:00:21;;;;;;;;;;;;;;;22.72;46.56;93819.41;5309130;26;7103;-61
2024/04/23 07:03:05;;;;;;;;;;;;;;;22.79;46.28;93820.88;5309844;26;8769;-61
2024/04/23 07:05:31;;;;;;;;;;;;;;;22.79;46.58;93824.38;5309777;26;9840;-61
2024/04/23 07:07:58;;;;;;;;;;;;;;;22.78;46.45;93836.56;5349804;26;9420;-61
2024/04/23 07:10:27;;;;;;;;;;;;;;;22.78;46.67;93822.13;5309504;26;8939;-61
2024/04/23 07:12:55;;;;;;;;;;;;;;;22.78;46.31;93822.88;5303920;26;9200;-60
2024/04/23 07:15:35;;;;;;;;;;;;;;;22.71;46.66;93819.91;5330079;26;9433;-61
2024/04/23 07:18:12;;;;;;;;;;;;;;;22.81;46.75;93832.84;5309655;26;9101;-60
2024/04/23 07:20:49;;;;;;;;;;;;;;;22.79;46.48;93820.88;5275064;26;9505;-61
2024/04/23 07:23:25;;;;;;;;;;;;;;;22.77;45.89;93829.59;5275278;27;9062;-61
2024/04/23 07:26:02;;;;;;;;;;;;;;;22.78;45.97;93831.09;5275797;27;9148;-62
2024/04/23 07:28:29;;;;;;;;;;;;;;;22.74;46.12;93825.13;5313426;26;9144;-62
2024/04/23 07:31:17;;;;;;;;;;;;;;;22.72;45.80;93824.88;5309018;26;8614;-62
2024/04/23 07:33:46;;;;;;;;;;;;;;;22.65;43.48;93825.41;5295892;26;9668;-62
2024/04/23 07:36:15;;;;;;;;;;;;;;;22.66;44.80;93834.38;5336008;26;8545;-62
2024/04/23 07:38:45;;;;;;;;;;;;;;;22.58;45.53;93823.16;5413548;26;9520;-62
2024/04/23 07:41:14;;;;;;;;;;;;;;;22.62;45.39;93829.16;5449144;26;8723;-62
2024/04/23 07:43:48;;;;;;;;;;;;;;;22.60;45.15;93830.94;5412542;26;8990;-62
2024/04/23 07:46:28;;;;;;;;;;;;;;;22.66;45.29;93824.19;5414519;26;9444;-62
2024/04/23 07:49:38;;;;;;;;;;;;;;;22.69;45.24;93834.13;5394590;26;8737;-62
2024/04/23 07:52:05;;;;;;;;;;;;;;;22.67;45.74;93839.34;5407988;26;9986;-62
2024/04/23 07:54:32;;;;;;;;;;;;;;;22.68;45.68;93843.59;5417284;26;9047;-62
2024/04/23 07:57:04;;;;;;;;;;;;;;;22.69;46.18;93836.09;5447814;26;9025;-62
2024/04/23 07:59:30;;;;;;;;;;;;;;;22.68;46.05;93840.88;5438393;26;9497;-61
2024/04/23 08:02:32;;;;;;;;;;;;;;;22.72;46.29;93846.81;5396028;26;7039;-61
2024/04/23 08:04:59;;;;;;;;;;;;;;;22.78;45.92;93844.78;5338203;26;9174;-62
2024/04/23 08:07:27;;;;;;;;;;;;;;;22.77;46.11;93832.31;5311036;26;10026;-62
2024/04/23 08:09:54;;;;;;;;;;;;;;;22.82;45.99;93839.78;5340211;26;9390;-62
2024/04/23 08:12:20;;;;;;;;;;;;;;;22.89;46.11;93838.50;5340225;26;7615;-62
2024/04/23 08:14:49;;;;;;;;;;;;;;;22.89;45.94;93835.78;5312345;26;8997;-61
2024/04/23 08:17:17;;;;;;;;;;;;;;;22.89;45.95;93844.00;5309553;26;9427;-62
2024/04/23 08:19:43;;;;;;;;;;;;;;;22.94;45.90;93845.97;5299263;26;8716;-62
2024/04/23 08:22:10;;;;;;;;;;;;;;;22.93;45.84;93844.47;5293149;26;9097;-62
2024/04/23 08:24:43;;;;;;;;;;;;;;;22.85;45.88;93838.78;5306605;26;9498;-61
2024/04/23 08:27:09;;;;;;;;;;;;;;;22.89;46.45;93847.50;5312585;26;8997;-62
2024/04/23 08:29:46;;;;;;;;;;;;;;;22.90;46.27;93848.97;5312554;26;9052;-62
2024/04/23 08:32:48;;;;;;;;;;;;;;;22.90;45.95;93851.72;5312062;26;9459;-62
2024/04/23 08:35:27;;;;;;;;;;;;;;;22.90;46.24;93857.19;5173262;27;9005;-62
2024/04/23 08:38:08;;;;;;;;;;;;;;;22.85;46.50;93849.75;5175625;27;9298;-62
2024/04/23 08:40:41;;;;;;;;;;;;;;;22.87;46.24;93852.75;5284228;27;7338;-62
2024/04/23 08:43:31;;;;;;;;;;;;;;;22.81;46.10;93846.53;5328124;26;9529;-62
2024/04/23 08:46:16;;;;;;;;;;;;;;;22.87;46.23;93857.47;5304479;26;9040;-62
2024/04/23 08:48:44;;;;;;;;;;;;;;;22.84;46.91;93855.72;5533373;21;9558;-63
2024/04/23 08:53:42;;;;;;;;;;;;;;;22.75;46.49;93848.53;5374958;26;7296;-63
2024/04/23 08:56:13;;;;;;;;;;;;;;;22.77;46.58;93848.06;5406082;26;9018;-63
2024/04/23 08:58:42;;;;;;;;;;;;;;;22.74;46.73;93844.31;5377801;26;9269;-64
2024/04/23 09:01:14;;;;;;;;;;;;;;;22.74;46.65;93841.56;5377434;26;7044;-64
2024/04/23 09:03:46;;;;;;;;;;;;;;;22.77;46.83;93848.78;5385184;26;7584;-63
2024/04/23 09:06:16;;;;;;;;;;;;;;;22.79;46.63;93846.31;5376327;26;9415;-63
2024/04/23 09:08:45;;;;;;;;;;;;;;;22.79;46.60;93846.31;5377818;26;7312;-63
2024/04/23 09:11:25;;;;;;;;;;;;;;;22.78;46.69;93839.31;5377098;26;7045;-63
2024/04/23 09:13:55;;;;;;;;;;;;;;;22.84;46.71;93852.97;5377691;26;9386;-63
2024/04/23 09:17:01;;;;;;;;;;;;;;;22.88;46.22;93856.97;5405329;26;9441;-63
2024/04/23 09:19:34;;;;;;;;;;;;;;;22.84;46.65;93844.75;5378422;26;7584;-62
2024/04/23 09:22:18;;;;;;;;;;;;;;;22.96;46.32;93860.69;5378056;26;7038;-63
2024/04/23 09:24:45;;;;;;;;;;;;;;;22.95;46.25;93844.72;5375528;26;7402;-63
2024/04/23 09:27:44;;;;;;;;;;;;;;;23.08;46.27;93867.59;5377724;26;7576;-63
2024/04/23 09:30:27;;;;;;;;;;;;;;;23.08;45.92;93850.38;5369703;26;9072;-64
2024/04/23 09:33:26;;;;;;;;;;;;;;;23.13;45.98;93853.09;5363947;26;7000;-64
2024/04/23 09:36:09;;;;;;;;;;;;;;;23.20;45.41;93854.56;5374311;26;7110;-64
2024/04/23 09:38:41;;;;;;;;;;;;;;;23.20;45.75;93849.06;5361978;26;7140;-64
2024/04/23 09:41:20;;;;;;;;;;;;;;;23.12;45.35;93837.13;5374678;26;7401;-64
2024/04/23 09:44:12;;;;;;;;;;;;;;;23.23;45.87;93851.53;5373324;26;7620;-65
2024/04/23 09:47:03;;;;;;;;;;;;;;;23.27;45.20;93841.03;5374326;26;7359;-63
2024/04/23 09:49:31;;;;;;;;;;;;;;;23.32;45.69;93847.00;5370585;26;9666;-63
2024/04/23 09:51:57;;;;;;;;;;;;;;;23.31;45.70;93846.28;5373908;26;7074;-65
2024/04/23 09:54:26;;;;;;;;;;;;;;;23.27;45.43;93843.78;5343924;26;8615;-61
2024/04/23 09:57:02;;;;;;;;;;;;;;;23.29;46.01;93851.53;5345912;26;9086;-61
2024/04/23 09:59:29;;;;;;;;;;;;;;;23.31;45.66;93849.00;5345186;26;9095;-63
2024/04/23 10:02:25;;;;;;;;;;;;;;;23.37;45.27;93843.50;5345178;26;7359;-63
2024/04/23 10:05:23;;;;;;;;;;;;;;;23.40;45.70;93837.75;5341798;26;9061;-63
2024/04/23 10:08:24;;;;;;;;;;;;;;;23.47;45.70;93844.69;5276556;27;9379;-63
2024/04/23 10:11:01;;;;;;;;;;;;;;;23.49;45.68;93845.66;5276903;27;9958;-63
2024/04/23 10:13:59;;;;;;;;;;;;;;;23.55;45.06;93846.38;5276408;27;9619;-63
2024/04/23 10:17:06;;;;;;;;;;;;;;;23.54;45.01;93838.66;5270360;27;7044;-64
2024/04/23 10:19:34;;;;;;;;;;;;;;;23.52;45.54;93841.16;5302110;26;9385;-63
2024/04/23 10:22:06;;;;;;;;;;;;;;;23.52;45.67;93843.91;5311836;26;9029;-63
2024/04/23 10:24:35;;;;;;;;;;;;;;;23.49;45.41;93845.66;5302932;26;9958;-63
2024/04/23 10:27:01;;;;;;;;;;;;;;;23.50;45.27;93840.91;5300404;26;9553;-63
2024/04/23 10:29:39;;;;;;;;;;;;;;;23.47;45.62;93836.47;5273421;27;8985;-63
2024/04/23 10:32:08;;;;;;;;;;;;;;;23.46;45.58;93840.47;5274287;27;8984;-63
2024/04/23 10:34:38;;;;;;;;;;;;;;;23.44;45.55;93838.22;5271074;27;9049;-63
2024/04/23 10:37:10;;;;;;;;;;;;;;;23.45;45.83;93841.69;5306270;26;8781;-63
2024/04/23 10:39:40;;;;;;;;;;;;;;;23.49;45.72;93844.94;5271746;27;9494;-63
2024/04/23 10:42:08;;;;;;;;;;;;;;;23.52;45.11;93846.66;5275325;27;9579;-63
2024/04/23 10:44:52;;;;;;;;;;;;;;;23.63;44.41;93841.06;5303227;26;9070;-63
2024/04/23 10:47:21;;;;;;;;;;;;;;;23.72;44.40;93844.25;5378153;26;9122;-63
2024/04/23 10:49:56;;;;;;;;;;;;;;;23.78;44.00;93844.94;5394557;26;8966;-64
2024/04/23 10:52:39;;;;;;;;;;;;;;;23.84;43.77;93842.91;5404069;26;7137;-63
2024/04/23 10:55:13;;;;;;;;;;;;;;;23.87;43.90;93836.41;5396708;26;9461;-63
2024/04/23 10:57:41;;;;;;;;;;;;;;;23.83;43.77;93824.19;5403971;26;9461;-64
2024/04/23 11:00:08;;;;;;;;;;;;;;;23.95;43.46;93839.31;5403543;26;7295;-64
2024/04/23 11:03:25;;;;;;;;;;;;;;;23.98;43.38;93835.53;5393723;26;9154;-64
2024/04/23 11:05:53;;;;;;;;;;;;;;;23.93;43.62;93828.84;5271574;27;8996;-64
2024/04/23 11:08:37;;;;;;;;;;;;;;;23.97;43.71;93831.28;5283052;27;9380;-64
2024/04/23 11:11:08;;;;;;;;;;;;;;;23.95;43.49;93831.81;5295046;27;7653;-61
2024/04/23 11:14:13;;;;;;;;;;;;;;;24.03;43.64;93836.75;5280583;26;9411;-61
2024/04/23 11:17:11;;;;;;;;;;;;;;;24.02;44.10;93841.50;5177901;27;9526;-60
2024/04/23 11:19:56;;;;;;;;;;;;;;;24.04;43.72;93838.22;5099592;27;8669;-61
2024/04/23 11:22:33;;;;;;;;;;;;;;;24.05;43.70;93835.03;5105454;28;9029;-61
2024/04/23 11:25:07;;;;;;;;;;;;;;;24.04;44.28;93838.22;5079855;28;9240;-61
2024/04/23 11:27:53;;;;;;;;;;;;;;;24.04;44.15;93843.72;5080331;28;9450;-60
2024/04/23 11:30:21;;;;;;;;;;;;;;;24.02;43.87;93836.00;5108138;27;9473;-65
2024/04/23 11:32:50;;;;;;;;;;;;;;;24.02;44.11;93830.50;5106165;27;9893;-62
2024/04/23 11:35:25;;;;;;;;;;;;;;;24.03;44.05;93836.75;5125950;27;9141;-62
2024/04/23 11:38:02;;;;;;;;;;;;;;;24.02;43.93;93827.75;5116156;27;8818;-62
2024/04/23 11:40:28;;;;;;;;;;;;;;;24.04;44.04;93833.50;5108869;28;9503;-62
2024/04/23 11:43:33;;;;;;;;;;;;;;;24.06;43.92;93831.00;5139871;27;8964;-62
2024/04/23 11:46:27;;;;;;;;;;;;;;;24.07;44.04;93837.25;5127400;27;9131;-63
2024/04/23 11:48:57;;;;;;;;;;;;;;;24.02;44.37;93825.00;5103049;27;9317;-62
2024/04/23 11:51:34;;;;;;;;;;;;;;;24.09;44.13;93832.72;5140380;27;9188;-62
2024/04/23 11:54:13;;;;;;;;;;;;;;;24.12;44.11;93839.19;5138448;27;9114;-63
2024/04/23 11:56:40;;;;;;;;;;;;;;;24.11;44.28;93837.69;5226934;27;9875;-63
2024/04/23 11:59:07;;;;;;;;;;;;;;;24.14;43.97;93837.41;5178292;27;9180;-63
2024/04/23 12:01:35;;;;;;;;;;;;;;;24.17;44.18;93835.63;5216545;27;8181;-62
2024/04/23 12:04:11;;;;;;;;;;;;;;;24.15;43.85;93838.91;5237474;27;9086;-62
2024/04/23 12:06:46;;;;;;;;;;;;;;;24.16;43.95;93834.91;5235530;27;9455;-63
2024/04/23 12:09:34;;;;;;;;;;;;;;;24.14;43.79;93831.91;5237250;27;8709;-63
2024/04/23 12:12:35;;;;;;;;;;;;;;;24.21;44.07;93830.59;5211356;27;9501;-63
2024/04/23 12:15:03;;;;;;;;;;;;;;;24.21;44.33;93825.84;5238188;27;9496;-63
2024/04/23 12:17:41;;;;;;;;;;;;;;;24.24;43.73;93833.06;5210403;27;9372;-63
2024/04/23 12:20:17;;;;;;;;;;;;;;;24.25;43.81;93826.31;5319100;26;9089;-63
2024/04/23 12:22:45;;;;;;;;;;;;;;;24.25;43.70;93825.59;5414404;26;7246;-63
2024/04/23 12:25:11;;;;;;;;;;;;;;;24.27;44.41;93832.03;5373339;26;7216;-63
2024/04/23 12:27:44;;;;;;;;;;;;;;;24.24;43.92;93824.84;5405396;26;9427;-63
2024/04/23 12:30:16;;;;;;;;;;;;;;;24.28;43.88;93819.03;5406330;26;8617;-63
2024/04/23 12:32:43;;;;;;;;;;;;;;;24.34;43.77;93827.97;5376458;26;8969;-63
2024/04/23 12:35:18;;;;;;;;;;;;;;;24.35;44.03;93830.22;5405164;26;9105;-63
2024/04/23 12:37:44;;;;;;;;;;;;;;;24.35;44.12;93827.47;5421051;26;9535;-62
2024/04/23 12:40:11;;;;;;;;;;;;;;;24.34;43.92;93816.97;5374733;26;9527;-63
2024/04/23 12:42:48;;;;;;;;;;;;;;;24.39;43.78;93824.41;5349083;26;9033;-63
2024/04/23 12:45:14;;;;;;;;;;;;;;;24.39;44.01;93827.16;5373661;26;9671;-63
2024/04/23 12:47:45;;;;;;;;;;;;;;;24.35;43.99;93808.22;5413340;26;9143;-63
2024/04/23 12:50:42;;;;;;;;;;;;;;;24.39;43.61;93827.91;5375617;26;7502;-63
2024/04/23 12:53:10;;;;;;;;;;;;;;;24.39;43.85;93822.44;5304981;27;9022;-63
2024/04/23 12:55:37;;;;;;;;;;;;;;;24.39;43.82;93822.44;5303905;26;9446;-63
2024/04/23 12:58:03;;;;;;;;;;;;;;;24.37;43.67;93815.94;5305616;27;9748;-63
2024/04/23 13:00:29;;;;;;;;;;;;;;;24.34;44.10;93820.47;5280683;26;9595;-63
2024/04/23 13:02:57;;;;;;;;;;;;;;;24.31;43.88;93818.78;5305423;27;7284;-63
2024/04/23 13:05:35;;;;;;;;;;;;;;;24.21;44.09;93803.88;5276820;27;8179;-63
2024/04/23 13:08:12;;;;;;;;;;;;;;;24.22;44.19;93808.13;5277230;27;9048;-63
2024/04/23 13:10:45;;;;;;;;;;;;;;;24.19;44.04;93811.88;5276024;27;9939;-63
2024/04/23 13:13:11;;;;;;;;;;;;;;;24.15;44.04;93808.69;5276684;27;9309;-66
2024/04/23 13:15:46;;;;;;;;;;;;;;;24.08;43.98;93803.75;5304931;27;9007;-62
2024/04/23 13:18:12;;;;;;;;;;;;;;;24.03;44.18;93804.53;5243605;27;9508;-62
2024/04/23 13:20:49;;;;;;;;;;;;;;;23.97;44.65;93801.09;5273049;27;7074;-62
2024/04/23 13:23:15;;;;;;;;;;;;;;;23.86;44.45;93792.94;5325968;26;8587;-62
2024/04/23 13:26:04;;;;;;;;;;;;;;;23.83;45.08;93802.22;5339945;26;9101;-62
2024/04/23 13:29:12;;;;;;;;;;;;;;;23.73;44.98;93803.78;5280277;26;7308;-62
2024/04/23 13:31:51;;;;;;;;;;;;;;;23.67;45.43;93805.84;5304893;27;9084;-62
2024/04/23 13:34:19;;;;;;;;;;;;;;;23.60;45.49;93798.16;5274069;27;8634;-62
2024/04/23 13:36:46;;;;;;;;;;;;;;;23.49;45.68;93795.53;5305193;27;9064;-62
2024/04/23 13:39:21;;;;;;;;;;;;;;;23.48;45.97;93792.03;5305327;27;9049;-62
2024/04/23 13:41:49;;;;;;;;;;;;;;;23.45;45.98;93795.03;5270609;27;9060;-62
2024/04/23 13:44:35;;;;;;;;;;;;;;;23.37;46.41;93800.34;5280994;26;8964;-63
2024/04/23 13:47:04;;;;;;;;;;;;;;;23.37;46.16;93800.34;5303276;27;7231;-63
2024/04/23 13:49:41;;;;;;;;;;;;;;;23.33;46.29;93802.63;5280717;27;9012;-66